sensor_id;sensor_type;location;lat;lon;timestamp;P1;durP1;ratioP1;P2;durP2;ratioP2
37237;SDS011;23129;49.662;8.448;2022-08-18T00:01:38;7.00;;;5.45;;
37237;SDS011;23129;49.662;8.448;2022-08-18T00:04:08;7.15;;;5.28;;
37237;SDS011;23129;49.662;8.448;2022-08-18T00:06:57;5.30;;;4.80;;
37237;SDS011;23129;49.662;8.448;2022-08-18T00:09:25;6.47;;;4.65;;
37237;SDS011;23129;49.662;8.448;2022-08-18T00:12:00;8.13;;;5.40;;
37237;SDS011;23129;49.662;8.448;2022-08-18T00:14:32;12.43;;;4.90;;
37237;SDS011;23129;49.662;8.448;2022-08-18T00:17:00;6.75;;;4.93;;
37237;SDS011;23129;49.662;8.448;2022-08-18T00:19:29;10.32;;;5.18;;
37237;SDS011;23129;49.662;8.448;2022-08-18T00:22:14;9.15;;;4.90;;
37237;SDS011;23129;49.662;8.448;2022-08-18T00:24:47;14.25;;;4.80;;
37237;SDS011;23129;49.662;8.448;2022-08-18T00:27:19;12.10;;;5.25;;
37237;SDS011;23129;49.662;8.448;2022-08-18T00:29:54;12.70;;;5.15;;
37237;SDS011;23129;49.662;8.448;2022-08-18T00:32:26;8.57;;;5.05;;
37237;SDS011;23129;49.662;8.448;2022-08-18T00:35:03;8.00;;;5.03;;
37237;SDS011;23129;49.662;8.448;2022-08-18T00:37:34;16.60;;;4.80;;
37237;SDS011;23129;49.662;8.448;2022-08-18T00:40:03;10.02;;;5.32;;
37237;SDS011;23129;49.662;8.448;2022-08-18T00:42:37;5.65;;;5.03;;
37237;SDS011;23129;49.662;8.448;2022-08-18T00:45:12;7.57;;;4.57;;
37237;SDS011;23129;49.662;8.448;2022-08-18T00:47:44;4.75;;;4.32;;
37237;SDS011;23129;49.662;8.448;2022-08-18T00:50:13;5.97;;;4.25;;
37237;SDS011;23129;49.662;8.448;2022-08-18T00:52:48;8.65;;;4.10;;
37237;SDS011;23129;49.662;8.448;2022-08-18T00:55:22;7.78;;;4.47;;
37237;SDS011;23129;49.662;8.448;2022-08-18T00:57:54;6.55;;;4.10;;
37237;SDS011;23129;49.662;8.448;2022-08-18T01:00:32;4.78;;;3.92;;
37237;SDS011;23129;49.662;8.448;2022-08-18T01:03:03;10.93;;;5.30;;
37237;SDS011;23129;49.662;8.448;2022-08-18T01:05:38;7.82;;;4.05;;
37237;SDS011;23129;49.662;8.448;2022-08-18T01:08:14;7.38;;;4.93;;
37237;SDS011;23129;49.662;8.448;2022-08-18T01:10:54;7.35;;;4.60;;
37237;SDS011;23129;49.662;8.448;2022-08-18T01:13:29;8.43;;;3.78;;
37237;SDS011;23129;49.662;8.448;2022-08-18T01:15:59;10.68;;;4.03;;
37237;SDS011;23129;49.662;8.448;2022-08-18T01:18:49;8.38;;;4.30;;
37237;SDS011;23129;49.662;8.448;2022-08-18T01:21:35;8.45;;;3.97;;
37237;SDS011;23129;49.662;8.448;2022-08-18T01:24:19;5.65;;;3.97;;
37237;SDS011;23129;49.662;8.448;2022-08-18T01:27:14;8.88;;;4.20;;
37237;SDS011;23129;49.662;8.448;2022-08-18T01:29:44;4.03;;;3.63;;
37237;SDS011;23129;49.662;8.448;2022-08-18T01:32:14;8.85;;;3.67;;
37237;SDS011;23129;49.662;8.448;2022-08-18T01:34:46;4.85;;;3.97;;
37237;SDS011;23129;49.662;8.448;2022-08-18T01:37:17;4.68;;;4.18;;
37237;SDS011;23129;49.662;8.448;2022-08-18T01:39:49;8.40;;;4.00;;
37237;SDS011;23129;49.662;8.448;2022-08-18T01:42:38;8.02;;;4.25;;
37237;SDS011;23129;49.662;8.448;2022-08-18T01:45:11;5.88;;;3.50;;
37237;SDS011;23129;49.662;8.448;2022-08-18T01:47:41;9.45;;;4.00;;
37237;SDS011;23129;49.662;8.448;2022-08-18T01:50:14;3.85;;;3.53;;
37237;SDS011;23129;49.662;8.448;2022-08-18T01:52:43;4.22;;;3.83;;
37237;SDS011;23129;49.662;8.448;2022-08-18T01:55:13;10.70;;;3.83;;
37237;SDS011;23129;49.662;8.448;2022-08-18T01:57:44;5.35;;;4.22;;
37237;SDS011;23129;49.662;8.448;2022-08-18T02:00:14;8.88;;;4.00;;
37237;SDS011;23129;49.662;8.448;2022-08-18T02:02:45;3.70;;;3.40;;
37237;SDS011;23129;49.662;8.448;2022-08-18T02:05:29;12.45;;;4.22;;
37237;SDS011;23129;49.662;8.448;2022-08-18T02:08:03;7.30;;;3.60;;
37237;SDS011;23129;49.662;8.448;2022-08-18T02:10:34;6.20;;;4.22;;
37237;SDS011;23129;49.662;8.448;2022-08-18T02:13:03;5.15;;;3.67;;
37237;SDS011;23129;49.662;8.448;2022-08-18T02:15:31;10.30;;;3.40;;
37237;SDS011;23129;49.662;8.448;2022-08-18T02:18:00;5.50;;;4.38;;
37237;SDS011;23129;49.662;8.448;2022-08-18T02:20:28;4.70;;;4.28;;
37237;SDS011;23129;49.662;8.448;2022-08-18T02:22:57;22.90;;;4.88;;
37237;SDS011;23129;49.662;8.448;2022-08-18T02:25:28;6.38;;;4.68;;
37237;SDS011;23129;49.662;8.448;2022-08-18T02:28:01;6.25;;;4.85;;
37237;SDS011;23129;49.662;8.448;2022-08-18T02:30:30;8.10;;;4.10;;
37237;SDS011;23129;49.662;8.448;2022-08-18T02:33:02;7.15;;;4.55;;
37237;SDS011;23129;49.662;8.448;2022-08-18T02:35:31;4.57;;;3.97;;
37237;SDS011;23129;49.662;8.448;2022-08-18T02:38:01;5.82;;;4.20;;
37237;SDS011;23129;49.662;8.448;2022-08-18T02:40:32;7.22;;;4.10;;
37237;SDS011;23129;49.662;8.448;2022-08-18T02:43:05;4.65;;;3.72;;
37237;SDS011;23129;49.662;8.448;2022-08-18T02:45:36;6.18;;;4.10;;
37237;SDS011;23129;49.662;8.448;2022-08-18T02:48:05;4.32;;;3.92;;
37237;SDS011;23129;49.662;8.448;2022-08-18T02:50:34;4.00;;;3.67;;
37237;SDS011;23129;49.662;8.448;2022-08-18T02:53:11;8.82;;;4.15;;
37237;SDS011;23129;49.662;8.448;2022-08-18T02:55:43;8.05;;;3.70;;
37237;SDS011;23129;49.662;8.448;2022-08-18T02:58:13;3.53;;;3.20;;
37237;SDS011;23129;49.662;8.448;2022-08-18T03:00:42;6.20;;;4.07;;
37237;SDS011;23129;49.662;8.448;2022-08-18T03:03:10;6.60;;;4.75;;
37237;SDS011;23129;49.662;8.448;2022-08-18T03:05:39;3.83;;;3.25;;
37237;SDS011;23129;49.662;8.448;2022-08-18T03:08:08;6.88;;;4.20;;
37237;SDS011;23129;49.662;8.448;2022-08-18T03:10:37;10.32;;;4.07;;
37237;SDS011;23129;49.662;8.448;2022-08-18T03:13:05;13.90;;;5.20;;
37237;SDS011;23129;49.662;8.448;2022-08-18T03:15:35;6.50;;;3.95;;
37237;SDS011;23129;49.662;8.448;2022-08-18T03:18:04;4.43;;;3.97;;
37237;SDS011;23129;49.662;8.448;2022-08-18T03:20:32;6.72;;;3.78;;
37237;SDS011;23129;49.662;8.448;2022-08-18T03:23:03;5.43;;;3.88;;
37237;SDS011;23129;49.662;8.448;2022-08-18T03:25:35;5.18;;;3.63;;
37237;SDS011;23129;49.662;8.448;2022-08-18T03:28:10;4.22;;;3.90;;
37237;SDS011;23129;49.662;8.448;2022-08-18T03:30:41;5.13;;;3.97;;
37237;SDS011;23129;49.662;8.448;2022-08-18T03:33:10;5.18;;;4.10;;
37237;SDS011;23129;49.662;8.448;2022-08-18T03:35:38;4.18;;;3.67;;
37237;SDS011;23129;49.662;8.448;2022-08-18T03:38:07;4.57;;;3.65;;
37237;SDS011;23129;49.662;8.448;2022-08-18T03:40:36;5.63;;;4.30;;
37237;SDS011;23129;49.662;8.448;2022-08-18T03:43:05;7.60;;;3.58;;
37237;SDS011;23129;49.662;8.448;2022-08-18T03:45:55;7.57;;;4.47;;
37237;SDS011;23129;49.662;8.448;2022-08-18T03:51:01;4.55;;;3.53;;
37237;SDS011;23129;49.662;8.448;2022-08-18T03:53:32;5.15;;;4.15;;
37237;SDS011;23129;49.662;8.448;2022-08-18T03:56:01;6.32;;;3.70;;
37237;SDS011;23129;49.662;8.448;2022-08-18T04:01:05;16.75;;;4.13;;
37237;SDS011;23129;49.662;8.448;2022-08-18T04:03:34;5.28;;;4.20;;
37237;SDS011;23129;49.662;8.448;2022-08-18T04:06:03;11.75;;;4.88;;
37237;SDS011;23129;49.662;8.448;2022-08-18T04:08:38;6.15;;;3.90;;
37237;SDS011;23129;49.662;8.448;2022-08-18T04:11:06;5.32;;;4.30;;
37237;SDS011;23129;49.662;8.448;2022-08-18T04:13:35;4.97;;;4.57;;
37237;SDS011;23129;49.662;8.448;2022-08-18T04:16:06;7.13;;;4.25;;
37237;SDS011;23129;49.662;8.448;2022-08-18T04:18:35;4.43;;;3.85;;
37237;SDS011;23129;49.662;8.448;2022-08-18T04:21:04;7.88;;;3.95;;
37237;SDS011;23129;49.662;8.448;2022-08-18T04:23:39;5.40;;;4.28;;
37237;SDS011;23129;49.662;8.448;2022-08-18T04:26:10;6.70;;;4.40;;
37237;SDS011;23129;49.662;8.448;2022-08-18T04:28:45;5.00;;;4.30;;
37237;SDS011;23129;49.662;8.448;2022-08-18T04:31:14;9.07;;;4.90;;
37237;SDS011;23129;49.662;8.448;2022-08-18T04:33:49;5.53;;;4.50;;
37237;SDS011;23129;49.662;8.448;2022-08-18T04:36:17;7.95;;;4.00;;
37237;SDS011;23129;49.662;8.448;2022-08-18T04:38:46;6.18;;;4.10;;
37237;SDS011;23129;49.662;8.448;2022-08-18T04:41:15;7.07;;;4.28;;
37237;SDS011;23129;49.662;8.448;2022-08-18T04:43:44;3.92;;;3.63;;
37237;SDS011;23129;49.662;8.448;2022-08-18T04:46:17;3.90;;;3.40;;
37237;SDS011;23129;49.662;8.448;2022-08-18T04:48:49;5.10;;;3.50;;
37237;SDS011;23129;49.662;8.448;2022-08-18T04:51:25;6.18;;;4.00;;
37237;SDS011;23129;49.662;8.448;2022-08-18T04:54:15;6.63;;;3.53;;
37237;SDS011;23129;49.662;8.448;2022-08-18T04:56:43;4.70;;;3.70;;
37237;SDS011;23129;49.662;8.448;2022-08-18T04:59:12;3.70;;;3.40;;
37237;SDS011;23129;49.662;8.448;2022-08-18T05:01:43;7.28;;;3.65;;
37237;SDS011;23129;49.662;8.448;2022-08-18T05:04:14;4.90;;;4.30;;
37237;SDS011;23129;49.662;8.448;2022-08-18T05:06:44;4.38;;;3.67;;
37237;SDS011;23129;49.662;8.448;2022-08-18T05:09:13;4.32;;;3.90;;
37237;SDS011;23129;49.662;8.448;2022-08-18T05:11:49;4.35;;;3.95;;
37237;SDS011;23129;49.662;8.448;2022-08-18T05:14:17;5.35;;;3.90;;
37237;SDS011;23129;49.662;8.448;2022-08-18T05:16:48;9.38;;;4.63;;
37237;SDS011;23129;49.662;8.448;2022-08-18T05:19:18;5.55;;;3.85;;
37237;SDS011;23129;49.662;8.448;2022-08-18T05:21:53;6.22;;;4.85;;
37237;SDS011;23129;49.662;8.448;2022-08-18T05:24:28;8.15;;;4.53;;
37237;SDS011;23129;49.662;8.448;2022-08-18T05:27:03;8.65;;;4.25;;
37237;SDS011;23129;49.662;8.448;2022-08-18T05:29:33;4.70;;;4.25;;
37237;SDS011;23129;49.662;8.448;2022-08-18T05:32:13;6.18;;;4.93;;
37237;SDS011;23129;49.662;8.448;2022-08-18T05:35:02;6.97;;;4.55;;
37237;SDS011;23129;49.662;8.448;2022-08-18T05:37:35;7.97;;;4.70;;
37237;SDS011;23129;49.662;8.448;2022-08-18T05:40:14;10.40;;;4.47;;
37237;SDS011;23129;49.662;8.448;2022-08-18T05:42:42;7.72;;;4.65;;
37237;SDS011;23129;49.662;8.448;2022-08-18T05:45:14;7.88;;;5.00;;
37237;SDS011;23129;49.662;8.448;2022-08-18T05:47:46;7.25;;;4.93;;
37237;SDS011;23129;49.662;8.448;2022-08-18T05:50:16;6.53;;;4.90;;
37237;SDS011;23129;49.662;8.448;2022-08-18T05:52:48;8.10;;;4.70;;
37237;SDS011;23129;49.662;8.448;2022-08-18T05:55:23;14.02;;;4.90;;
37237;SDS011;23129;49.662;8.448;2022-08-18T05:58:16;10.25;;;5.13;;
37237;SDS011;23129;49.662;8.448;2022-08-18T06:00:59;11.52;;;5.43;;
37237;SDS011;23129;49.662;8.448;2022-08-18T06:03:34;12.50;;;5.63;;
37237;SDS011;23129;49.662;8.448;2022-08-18T06:06:12;7.75;;;4.97;;
37237;SDS011;23129;49.662;8.448;2022-08-18T06:08:51;8.63;;;5.28;;
37237;SDS011;23129;49.662;8.448;2022-08-18T06:11:29;16.77;;;5.55;;
37237;SDS011;23129;49.662;8.448;2022-08-18T06:13:58;5.43;;;4.80;;
37237;SDS011;23129;49.662;8.448;2022-08-18T06:16:31;9.20;;;6.03;;
37237;SDS011;23129;49.662;8.448;2022-08-18T06:19:24;8.20;;;5.18;;
37237;SDS011;23129;49.662;8.448;2022-08-18T06:22:07;6.32;;;5.65;;
37237;SDS011;23129;49.662;8.448;2022-08-18T06:24:48;6.95;;;5.65;;
37237;SDS011;23129;49.662;8.448;2022-08-18T06:27:29;7.90;;;5.38;;
37237;SDS011;23129;49.662;8.448;2022-08-18T06:30:08;8.02;;;5.85;;
37237;SDS011;23129;49.662;8.448;2022-08-18T06:32:53;6.47;;;5.32;;
37237;SDS011;23129;49.662;8.448;2022-08-18T06:35:40;8.65;;;5.82;;
37237;SDS011;23129;49.662;8.448;2022-08-18T06:38:21;5.32;;;4.78;;
37237;SDS011;23129;49.662;8.448;2022-08-18T06:41:13;6.75;;;5.63;;
37237;SDS011;23129;49.662;8.448;2022-08-18T06:44:05;20.33;;;7.35;;
37237;SDS011;23129;49.662;8.448;2022-08-18T06:46:40;18.20;;;6.45;;
37237;SDS011;23129;49.662;8.448;2022-08-18T06:49:15;17.27;;;6.55;;
37237;SDS011;23129;49.662;8.448;2022-08-18T06:51:56;8.90;;;6.28;;
37237;SDS011;23129;49.662;8.448;2022-08-18T06:54:26;12.77;;;6.90;;
37237;SDS011;23129;49.662;8.448;2022-08-18T06:56:56;8.98;;;6.20;;
37237;SDS011;23129;49.662;8.448;2022-08-18T06:59:27;10.10;;;7.07;;
37237;SDS011;23129;49.662;8.448;2022-08-18T07:02:00;12.23;;;6.60;;
37237;SDS011;23129;49.662;8.448;2022-08-18T07:04:43;7.65;;;5.65;;
37237;SDS011;23129;49.662;8.448;2022-08-18T07:07:32;8.13;;;7.07;;
37237;SDS011;23129;49.662;8.448;2022-08-18T07:10:27;9.48;;;6.20;;
37237;SDS011;23129;49.662;8.448;2022-08-18T07:13:06;7.45;;;6.10;;
37237;SDS011;23129;49.662;8.448;2022-08-18T07:15:42;11.98;;;7.03;;
37237;SDS011;23129;49.662;8.448;2022-08-18T07:18:14;13.45;;;7.45;;
37237;SDS011;23129;49.662;8.448;2022-08-18T07:20:50;11.40;;;7.05;;
37237;SDS011;23129;49.662;8.448;2022-08-18T07:23:25;13.57;;;7.43;;
37237;SDS011;23129;49.662;8.448;2022-08-18T07:25:59;18.23;;;6.60;;
37237;SDS011;23129;49.662;8.448;2022-08-18T07:28:35;12.52;;;6.97;;
37237;SDS011;23129;49.662;8.448;2022-08-18T07:31:08;11.65;;;6.97;;
37237;SDS011;23129;49.662;8.448;2022-08-18T07:33:47;10.02;;;7.43;;
37237;SDS011;23129;49.662;8.448;2022-08-18T07:36:29;10.15;;;7.60;;
37237;SDS011;23129;49.662;8.448;2022-08-18T07:39:05;12.45;;;7.75;;
37237;SDS011;23129;49.662;8.448;2022-08-18T07:41:42;8.45;;;7.30;;
37237;SDS011;23129;49.662;8.448;2022-08-18T07:44:19;9.00;;;7.68;;
37237;SDS011;23129;49.662;8.448;2022-08-18T07:46:54;14.15;;;8.23;;
37237;SDS011;23129;49.662;8.448;2022-08-18T07:49:27;10.07;;;6.60;;
37237;SDS011;23129;49.662;8.448;2022-08-18T07:54:56;13.85;;;5.97;;
37237;SDS011;23129;49.662;8.448;2022-08-18T07:57:41;12.43;;;6.60;;
37237;SDS011;23129;49.662;8.448;2022-08-18T08:00:17;7.53;;;5.85;;
37237;SDS011;23129;49.662;8.448;2022-08-18T08:03:13;8.82;;;6.25;;
37237;SDS011;23129;49.662;8.448;2022-08-18T08:06:00;7.18;;;6.10;;
37237;SDS011;23129;49.662;8.448;2022-08-18T08:08:39;15.98;;;6.55;;
37237;SDS011;23129;49.662;8.448;2022-08-18T08:11:19;8.50;;;7.07;;
37237;SDS011;23129;49.662;8.448;2022-08-18T08:14:05;6.88;;;5.60;;
37237;SDS011;23129;49.662;8.448;2022-08-18T08:16:56;7.53;;;6.22;;
37237;SDS011;23129;49.662;8.448;2022-08-18T08:19:38;8.82;;;6.40;;
37237;SDS011;23129;49.662;8.448;2022-08-18T08:22:28;7.00;;;6.30;;
37237;SDS011;23129;49.662;8.448;2022-08-18T08:25:04;9.98;;;6.22;;
37237;SDS011;23129;49.662;8.448;2022-08-18T08:28:07;7.85;;;5.68;;
37237;SDS011;23129;49.662;8.448;2022-08-18T08:30:52;10.85;;;6.75;;
37237;SDS011;23129;49.662;8.448;2022-08-18T08:33:55;10.02;;;6.07;;
37237;SDS011;23129;49.662;8.448;2022-08-18T08:36:35;6.97;;;5.75;;
37237;SDS011;23129;49.662;8.448;2022-08-18T08:39:09;12.20;;;6.47;;
37237;SDS011;23129;49.662;8.448;2022-08-18T08:41:45;13.40;;;8.25;;
37237;SDS011;23129;49.662;8.448;2022-08-18T08:44:44;9.30;;;7.35;;
37237;SDS011;23129;49.662;8.448;2022-08-18T08:47:28;12.38;;;7.90;;
37237;SDS011;23129;49.662;8.448;2022-08-18T08:50:04;13.32;;;8.65;;
37237;SDS011;23129;49.662;8.448;2022-08-18T08:52:39;10.43;;;8.00;;
37237;SDS011;23129;49.662;8.448;2022-08-18T08:55:14;13.23;;;8.48;;
37237;SDS011;23129;49.662;8.448;2022-08-18T08:57:52;13.05;;;9.98;;
37237;SDS011;23129;49.662;8.448;2022-08-18T09:00:28;18.73;;;9.85;;
37237;SDS011;23129;49.662;8.448;2022-08-18T09:03:09;18.67;;;10.85;;
37237;SDS011;23129;49.662;8.448;2022-08-18T09:06:05;24.45;;;10.60;;
37237;SDS011;23129;49.662;8.448;2022-08-18T09:08:54;15.13;;;10.82;;
37237;SDS011;23129;49.662;8.448;2022-08-18T09:11:49;15.23;;;10.18;;
37237;SDS011;23129;49.662;8.448;2022-08-18T09:15:07;19.05;;;10.63;;
37237;SDS011;23129;49.662;8.448;2022-08-18T09:18:15;15.05;;;11.20;;
37237;SDS011;23129;49.662;8.448;2022-08-18T09:21:16;14.85;;;10.02;;
37237;SDS011;23129;49.662;8.448;2022-08-18T09:24:01;17.88;;;11.43;;
37237;SDS011;23129;49.662;8.448;2022-08-18T09:26:41;17.65;;;11.63;;
37237;SDS011;23129;49.662;8.448;2022-08-18T09:29:17;14.65;;;10.23;;
37237;SDS011;23129;49.662;8.448;2022-08-18T09:35:30;15.27;;;10.55;;
37237;SDS011;23129;49.662;8.448;2022-08-18T09:38:20;14.80;;;10.02;;
37237;SDS011;23129;49.662;8.448;2022-08-18T09:41:12;15.65;;;10.30;;
37237;SDS011;23129;49.662;8.448;2022-08-18T09:43:59;14.68;;;10.05;;
37237;SDS011;23129;49.662;8.448;2022-08-18T09:46:53;18.50;;;11.20;;
37237;SDS011;23129;49.662;8.448;2022-08-18T09:49:42;20.58;;;10.48;;
37237;SDS011;23129;49.662;8.448;2022-08-18T09:58:47;14.63;;;10.38;;
37237;SDS011;23129;49.662;8.448;2022-08-18T10:01:38;17.85;;;10.73;;
37237;SDS011;23129;49.662;8.448;2022-08-18T10:04:24;15.57;;;12.23;;
37237;SDS011;23129;49.662;8.448;2022-08-18T10:07:16;20.95;;;12.27;;
37237;SDS011;23129;49.662;8.448;2022-08-18T10:10:14;16.38;;;11.90;;
37237;SDS011;23129;49.662;8.448;2022-08-18T10:13:13;20.05;;;11.55;;
37237;SDS011;23129;49.662;8.448;2022-08-18T10:15:59;17.98;;;11.43;;
37237;SDS011;23129;49.662;8.448;2022-08-18T10:18:52;20.73;;;12.43;;
37237;SDS011;23129;49.662;8.448;2022-08-18T10:24:44;16.23;;;11.50;;
37237;SDS011;23129;49.662;8.448;2022-08-18T10:27:34;22.42;;;13.73;;
37237;SDS011;23129;49.662;8.448;2022-08-18T10:36:58;22.02;;;14.18;;
37237;SDS011;23129;49.662;8.448;2022-08-18T10:39:44;19.98;;;14.38;;
37237;SDS011;23129;49.662;8.448;2022-08-18T10:42:18;20.65;;;14.32;;
37237;SDS011;23129;49.662;8.448;2022-08-18T10:45:00;27.40;;;15.15;;
37237;SDS011;23129;49.662;8.448;2022-08-18T10:47:41;20.77;;;15.23;;
37237;SDS011;23129;49.662;8.448;2022-08-18T10:50:17;23.42;;;16.25;;
37237;SDS011;23129;49.662;8.448;2022-08-18T10:52:55;23.88;;;16.30;;
37237;SDS011;23129;49.662;8.448;2022-08-18T10:55:58;26.17;;;15.05;;
37237;SDS011;23129;49.662;8.448;2022-08-18T11:04:55;22.75;;;16.08;;
37237;SDS011;23129;49.662;8.448;2022-08-18T11:07:26;23.08;;;16.15;;
37237;SDS011;23129;49.662;8.448;2022-08-18T11:10:00;25.25;;;17.17;;
37237;SDS011;23129;49.662;8.448;2022-08-18T11:13:08;23.17;;;16.30;;
37237;SDS011;23129;49.662;8.448;2022-08-18T11:15:48;27.70;;;16.88;;
37237;SDS011;23129;49.662;8.448;2022-08-18T11:18:37;31.02;;;16.85;;
37237;SDS011;23129;49.662;8.448;2022-08-18T11:21:21;21.55;;;15.35;;
37237;SDS011;23129;49.662;8.448;2022-08-18T11:24:07;24.98;;;17.48;;
37237;SDS011;23129;49.662;8.448;2022-08-18T11:26:42;22.15;;;16.40;;
37237;SDS011;23129;49.662;8.448;2022-08-18T11:29:30;23.38;;;15.98;;
37237;SDS011;23129;49.662;8.448;2022-08-18T11:32:05;20.77;;;16.10;;
37237;SDS011;23129;49.662;8.448;2022-08-18T11:34:38;18.15;;;14.52;;
37237;SDS011;23129;49.662;8.448;2022-08-18T11:37:21;23.90;;;16.02;;
37237;SDS011;23129;49.662;8.448;2022-08-18T11:40:21;22.23;;;15.43;;
37237;SDS011;23129;49.662;8.448;2022-08-18T11:43:23;20.00;;;15.63;;
37237;SDS011;23129;49.662;8.448;2022-08-18T11:46:12;19.50;;;14.85;;
37237;SDS011;23129;49.662;8.448;2022-08-18T11:48:57;22.63;;;15.40;;
37237;SDS011;23129;49.662;8.448;2022-08-18T11:51:30;21.95;;;16.50;;
37237;SDS011;23129;49.662;8.448;2022-08-18T11:54:01;21.00;;;14.20;;
37237;SDS011;23129;49.662;8.448;2022-08-18T11:56:49;24.88;;;15.13;;
37237;SDS011;23129;49.662;8.448;2022-08-18T11:59:31;23.73;;;14.80;;
37237;SDS011;23129;49.662;8.448;2022-08-18T12:02:23;15.85;;;12.63;;
37237;SDS011;23129;49.662;8.448;2022-08-18T12:04:54;20.33;;;13.52;;
37237;SDS011;23129;49.662;8.448;2022-08-18T12:07:35;22.17;;;13.75;;
37237;SDS011;23129;49.662;8.448;2022-08-18T12:10:23;20.35;;;13.27;;
37237;SDS011;23129;49.662;8.448;2022-08-18T12:12:55;17.88;;;12.65;;
37237;SDS011;23129;49.662;8.448;2022-08-18T12:15:45;17.73;;;12.68;;
37237;SDS011;23129;49.662;8.448;2022-08-18T12:18:15;17.85;;;14.07;;
37237;SDS011;23129;49.662;8.448;2022-08-18T12:20:54;20.08;;;13.68;;
37237;SDS011;23129;49.662;8.448;2022-08-18T12:23:24;21.63;;;14.40;;
37237;SDS011;23129;49.662;8.448;2022-08-18T12:26:04;25.40;;;14.98;;
37237;SDS011;23129;49.662;8.448;2022-08-18T12:28:53;26.00;;;15.27;;
37237;SDS011;23129;49.662;8.448;2022-08-18T12:31:27;21.25;;;15.88;;
37237;SDS011;23129;49.662;8.448;2022-08-18T12:34:15;20.05;;;14.50;;
37237;SDS011;23129;49.662;8.448;2022-08-18T12:36:53;20.88;;;14.80;;
37237;SDS011;23129;49.662;8.448;2022-08-18T12:39:26;22.23;;;14.60;;
37237;SDS011;23129;49.662;8.448;2022-08-18T12:41:57;22.30;;;15.93;;
37237;SDS011;23129;49.662;8.448;2022-08-18T12:44:27;25.65;;;17.08;;
37237;SDS011;23129;49.662;8.448;2022-08-18T12:46:55;22.00;;;16.13;;
37237;SDS011;23129;49.662;8.448;2022-08-18T12:49:26;30.88;;;16.52;;
37237;SDS011;23129;49.662;8.448;2022-08-18T12:51:55;23.08;;;15.13;;
37237;SDS011;23129;49.662;8.448;2022-08-18T12:54:23;28.15;;;17.27;;
37237;SDS011;23129;49.662;8.448;2022-08-18T12:56:53;25.38;;;17.00;;
37237;SDS011;23129;49.662;8.448;2022-08-18T12:59:25;25.85;;;16.33;;
37237;SDS011;23129;49.662;8.448;2022-08-18T13:02:03;22.27;;;14.98;;
37237;SDS011;23129;49.662;8.448;2022-08-18T13:04:35;21.17;;;16.13;;
37237;SDS011;23129;49.662;8.448;2022-08-18T13:07:04;21.92;;;14.15;;
37237;SDS011;23129;49.662;8.448;2022-08-18T13:09:34;21.38;;;14.80;;
37237;SDS011;23129;49.662;8.448;2022-08-18T13:12:19;17.20;;;14.07;;
37237;SDS011;23129;49.662;8.448;2022-08-18T13:14:51;14.48;;;11.82;;
37237;SDS011;23129;49.662;8.448;2022-08-18T13:17:20;14.45;;;11.48;;
37237;SDS011;23129;49.662;8.448;2022-08-18T13:20:01;16.60;;;12.13;;
37237;SDS011;23129;49.662;8.448;2022-08-18T13:25:02;16.83;;;12.07;;
37237;SDS011;23129;49.662;8.448;2022-08-18T13:27:33;17.33;;;11.50;;
37237;SDS011;23129;49.662;8.448;2022-08-18T13:30:04;15.63;;;11.02;;
37237;SDS011;23129;49.662;8.448;2022-08-18T13:32:56;16.00;;;10.52;;
37237;SDS011;23129;49.662;8.448;2022-08-18T13:35:33;12.10;;;9.95;;
37237;SDS011;23129;49.662;8.448;2022-08-18T13:38:10;15.93;;;10.43;;
37237;SDS011;23129;49.662;8.448;2022-08-18T13:40:51;15.38;;;11.98;;
37237;SDS011;23129;49.662;8.448;2022-08-18T13:43:22;16.73;;;10.80;;
37237;SDS011;23129;49.662;8.448;2022-08-18T13:45:57;12.35;;;10.55;;
37237;SDS011;23129;49.662;8.448;2022-08-18T13:48:27;14.00;;;11.40;;
37237;SDS011;23129;49.662;8.448;2022-08-18T13:50:59;12.75;;;10.40;;
37237;SDS011;23129;49.662;8.448;2022-08-18T13:53:29;15.88;;;11.55;;
37237;SDS011;23129;49.662;8.448;2022-08-18T13:55:58;14.25;;;10.70;;
37237;SDS011;23129;49.662;8.448;2022-08-18T13:58:29;19.10;;;10.57;;
37237;SDS011;23129;49.662;8.448;2022-08-18T14:00:58;11.35;;;9.40;;
37237;SDS011;23129;49.662;8.448;2022-08-18T14:03:48;9.10;;;7.90;;
37237;SDS011;23129;49.662;8.448;2022-08-18T14:06:18;10.95;;;8.52;;
37237;SDS011;23129;49.662;8.448;2022-08-18T14:08:48;12.30;;;7.82;;
37237;SDS011;23129;49.662;8.448;2022-08-18T14:11:17;9.30;;;7.03;;
37237;SDS011;23129;49.662;8.448;2022-08-18T14:13:51;11.60;;;8.88;;
37237;SDS011;23129;49.662;8.448;2022-08-18T14:16:20;12.57;;;9.48;;
37237;SDS011;23129;49.662;8.448;2022-08-18T14:18:52;10.48;;;8.13;;
37237;SDS011;23129;49.662;8.448;2022-08-18T14:21:41;9.57;;;7.68;;
37237;SDS011;23129;49.662;8.448;2022-08-18T14:24:37;11.00;;;7.30;;
37237;SDS011;23129;49.662;8.448;2022-08-18T14:27:25;10.23;;;8.15;;
37237;SDS011;23129;49.662;8.448;2022-08-18T14:30:01;10.95;;;7.57;;
37237;SDS011;23129;49.662;8.448;2022-08-18T14:32:32;9.15;;;7.55;;
37237;SDS011;23129;49.662;8.448;2022-08-18T14:35:18;7.25;;;6.05;;
37237;SDS011;23129;49.662;8.448;2022-08-18T14:38:04;9.05;;;5.78;;
37237;SDS011;23129;49.662;8.448;2022-08-18T14:40:38;6.88;;;6.07;;
37237;SDS011;23129;49.662;8.448;2022-08-18T14:43:18;6.13;;;5.32;;
37237;SDS011;23129;49.662;8.448;2022-08-18T14:45:50;7.18;;;5.22;;
37237;SDS011;23129;49.662;8.448;2022-08-18T14:48:29;6.35;;;4.57;;
37237;SDS011;23129;49.662;8.448;2022-08-18T14:51:00;4.80;;;4.40;;
37237;SDS011;23129;49.662;8.448;2022-08-18T14:53:36;6.38;;;5.30;;
37237;SDS011;23129;49.662;8.448;2022-08-18T14:56:13;7.60;;;5.75;;
37237;SDS011;23129;49.662;8.448;2022-08-18T14:58:42;7.93;;;6.43;;
37237;SDS011;23129;49.662;8.448;2022-08-18T15:01:11;7.47;;;6.78;;
37237;SDS011;23129;49.662;8.448;2022-08-18T15:03:48;9.88;;;6.03;;
37237;SDS011;23129;49.662;8.448;2022-08-18T15:06:17;9.15;;;6.70;;
37237;SDS011;23129;49.662;8.448;2022-08-18T15:08:54;9.10;;;6.78;;
37237;SDS011;23129;49.662;8.448;2022-08-18T15:11:23;13.85;;;6.32;;
37237;SDS011;23129;49.662;8.448;2022-08-18T15:13:57;6.82;;;5.90;;
37237;SDS011;23129;49.662;8.448;2022-08-18T15:16:26;7.97;;;5.68;;
37237;SDS011;23129;49.662;8.448;2022-08-18T15:19:04;10.10;;;5.70;;
37237;SDS011;23129;49.662;8.448;2022-08-18T15:21:52;9.88;;;5.55;;
37237;SDS011;23129;49.662;8.448;2022-08-18T15:24:42;6.03;;;5.47;;
37237;SDS011;23129;49.662;8.448;2022-08-18T15:27:31;5.28;;;4.75;;
37237;SDS011;23129;49.662;8.448;2022-08-18T15:30:09;6.28;;;4.57;;
37237;SDS011;23129;49.662;8.448;2022-08-18T15:32:45;8.27;;;4.78;;
37237;SDS011;23129;49.662;8.448;2022-08-18T15:35:16;8.70;;;5.07;;
37237;SDS011;23129;49.662;8.448;2022-08-18T15:37:46;5.43;;;4.88;;
37237;SDS011;23129;49.662;8.448;2022-08-18T15:40:19;6.35;;;5.15;;
37237;SDS011;23129;49.662;8.448;2022-08-18T15:43:04;5.20;;;4.75;;
37237;SDS011;23129;49.662;8.448;2022-08-18T15:45:36;7.13;;;5.43;;
37237;SDS011;23129;49.662;8.448;2022-08-18T15:48:24;6.00;;;5.50;;
37237;SDS011;23129;49.662;8.448;2022-08-18T15:50:54;5.55;;;5.03;;
37237;SDS011;23129;49.662;8.448;2022-08-18T15:53:36;6.82;;;5.20;;
37237;SDS011;23129;49.662;8.448;2022-08-18T15:56:13;6.32;;;5.38;;
37237;SDS011;23129;49.662;8.448;2022-08-18T15:58:46;5.00;;;4.50;;
37237;SDS011;23129;49.662;8.448;2022-08-18T16:01:17;6.03;;;4.97;;
37237;SDS011;23129;49.662;8.448;2022-08-18T16:03:58;5.07;;;4.57;;
37237;SDS011;23129;49.662;8.448;2022-08-18T16:06:29;6.57;;;3.83;;
37237;SDS011;23129;49.662;8.448;2022-08-18T16:09:01;4.78;;;4.38;;
37237;SDS011;23129;49.662;8.448;2022-08-18T16:11:32;4.38;;;4.05;;
37237;SDS011;23129;49.662;8.448;2022-08-18T16:14:00;5.10;;;3.97;;